Time;durP1;ratioP1;P1;durP2;ratioP2;P2;SDS_P1;SDS_P2;PMS_P1;PMS_P2;Temp;Humidity;BMP_temperature;BMP_pressure;BME280_temperature;BME280_humidity;BME280_pressure;Samples;Min_cycle;Max_cycle;Signal;HPM_P1;HPM_P2
2023/12/31 00:00:00;;;;;;;5.55;1.73;;;;;;;7.06;100.00;100294.25;5020134;28;20117;-72
2023/12/31 00:02:26;;;;;;;4.80;2.45;;;;;;;7.05;100.00;100277.19;5042168;28;20082;-72
2023/12/31 00:04:51;;;;;;;4.43;2.00;;;;;;;7.02;100.00;100263.59;5037318;28;20408;-72
2023/12/31 00:07:16;;;;;;;6.78;1.52;;;;;;;6.92;100.00;100277.53;5034501;28;20040;-73
2023/12/31 00:09:42;;;;;;;3.33;1.67;;;;;;;6.91;100.00;100275.88;5037027;28;20033;-72
2023/12/31 00:12:07;;;;;;;3.33;1.70;;;;;;;6.88;100.00;100268.47;5038024;28;20033;-73
2023/12/31 00:14:33;;;;;;;3.03;1.67;;;;;;;6.78;100.00;100273.66;5052685;28;20527;-72
2023/12/31 00:16:58;;;;;;;5.00;1.67;;;;;;;6.67;100.00;100290.13;5038687;28;20029;-72
2023/12/31 00:19:24;;;;;;;3.42;1.85;;;;;;;6.65;100.00;100292.03;5024217;28;20029;-73
2023/12/31 00:21:49;;;;;;;5.80;1.70;;;;;;;6.78;100.00;100273.66;5040521;28;21007;-72
2023/12/31 00:24:15;;;;;;;2.88;1.75;;;;;;;6.76;100.00;100265.25;5031818;28;20327;-72
2023/12/31 00:26:40;;;;;;;3.75;1.60;;;;;;;6.75;100.00;100254.13;5034958;28;20041;-73
2023/12/31 00:29:08;;;;;;;5.47;1.90;;;;;;;6.69;100.00;100249.56;5017933;28;20045;-72
2023/12/31 00:31:34;;;;;;;5.28;2.20;;;;;;;6.75;100.00;100251.56;5032418;28;20037;-73
2023/12/31 00:33:59;;;;;;;5.28;1.98;;;;;;;6.74;100.00;100243.97;5038052;28;20029;-72
2023/12/31 00:36:25;;;;;;;3.22;2.00;;;;;;;6.62;100.00;100244.16;5036811;28;20025;-73
2023/12/31 00:38:50;;;;;;;7.05;1.80;;;;;;;6.58;100.00;100236.88;5033435;28;20037;-72
2023/12/31 00:41:16;;;;;;;4.82;1.58;;;;;;;6.60;100.00;100225.47;5040880;28;20021;-72
2023/12/31 00:43:41;;;;;;;3.70;1.65;;;;;;;6.64;100.00;100228.56;5025441;28;20033;-72
2023/12/31 00:46:07;;;;;;;4.53;1.40;;;;;;;6.61;100.00;100221.94;5022036;28;20028;-73
2023/12/31 00:48:32;;;;;;;3.80;1.60;;;;;;;6.70;100.00;100209.94;5036907;28;20053;-72
2023/12/31 00:51:01;;;;;;;4.00;1.10;;;;;;;6.69;100.00;100210.91;5020589;28;20045;-72
2023/12/31 00:53:26;;;;;;;3.60;1.50;;;;;;;6.62;100.00;100209.88;5034796;28;20048;-72
2023/12/31 00:55:52;;;;;;;3.05;1.20;;;;;;;6.73;100.00;100204.50;5034495;28;20037;-73
2023/12/31 00:58:18;;;;;;;2.95;1.40;;;;;;;6.70;100.00;100217.69;5034314;28;20087;-72
2023/12/31 01:00:43;;;;;;;5.40;1.60;;;;;;;6.79;100.00;100203.94;5034927;28;20514;-72
2023/12/31 01:03:09;;;;;;;7.60;1.50;;;;;;;6.79;100.00;100197.97;5024222;28;20025;-72
2023/12/31 01:05:34;;;;;;;5.10;1.30;;;;;;;6.80;100.00;100195.25;5027800;28;20538;-73
2023/12/31 01:08:00;;;;;;;3.25;1.42;;;;;;;6.86;100.00;100193.06;5029135;28;20254;-72
2023/12/31 01:10:25;;;;;;;4.78;1.48;;;;;;;6.76;100.00;100193.94;5030007;28;20041;-73
2023/12/31 01:12:51;;;;;;;3.92;1.50;;;;;;;6.89;100.00;100187.59;5028158;28;20033;-72
2023/12/31 01:15:18;;;;;;;4.28;1.70;;;;;;;6.93;100.00;100184.59;5035029;28;20241;-73
2023/12/31 01:17:44;;;;;;;4.82;1.60;;;;;;;7.00;100.00;100179.63;5030863;28;20611;-72
2023/12/31 01:20:10;;;;;;;4.05;1.33;;;;;;;7.15;100.00;100174.78;5025568;28;20044;-73
2023/12/31 01:22:36;;;;;;;4.00;1.30;;;;;;;7.17;100.00;100159.97;5027887;28;20071;-72
2023/12/31 01:25:01;;;;;;;2.22;1.13;;;;;;;7.17;100.00;100149.66;5008304;28;20021;-73
2023/12/31 01:27:27;;;;;;;4.82;1.50;;;;;;;7.18;100.00;100156.44;5030009;28;20037;-72
2023/12/31 01:29:52;;;;;;;3.00;1.50;;;;;;;7.28;100.00;100144.25;5031736;28;20091;-73
2023/12/31 01:32:18;;;;;;;2.72;1.40;;;;;;;7.22;100.00;100137.91;5035901;28;20487;-73
2023/12/31 01:34:43;;;;;;;1.85;1.27;;;;;;;7.26;100.00;100128.13;5036976;28;20373;-73
2023/12/31 01:37:09;;;;;;;3.80;1.50;;;;;;;7.42;100.00;100119.66;5034128;28;20037;-73
2023/12/31 01:39:34;;;;;;;1.70;1.10;;;;;;;7.44;100.00;100116.94;5039001;28;20041;-72
2023/12/31 01:42:00;;;;;;;4.20;1.10;;;;;;;7.53;100.00;100116.03;5037523;28;20248;-73
2023/12/31 01:44:27;;;;;;;2.47;1.35;;;;;;;7.60;100.00;100107.53;5034852;28;20048;-73
2023/12/31 01:46:53;;;;;;;4.07;1.10;;;;;;;7.69;100.00;100102.44;5029519;28;20029;-73
2023/12/31 01:49:19;;;;;;;2.10;1.00;;;;;;;7.73;100.00;100103.72;5043575;28;20167;-73
2023/12/31 01:51:44;;;;;;;4.93;1.48;;;;;;;7.65;100.00;100101.91;5033917;28;20549;-72
2023/12/31 01:54:10;;;;;;;2.70;1.48;;;;;;;7.75;100.00;100094.84;5024178;28;20041;-73
2023/12/31 01:56:38;;;;;;;4.72;1.30;;;;;;;7.68;100.00;100091.28;5037307;28;20397;-73
2023/12/31 01:59:05;;;;;;;3.58;1.10;;;;;;;7.61;100.00;100087.72;5017706;28;20032;-73
2023/12/31 02:01:32;;;;;;;2.05;1.05;;;;;;;7.66;100.00;100080.28;5037821;28;20400;-73
2023/12/31 02:03:57;;;;;;;3.65;1.27;;;;;;;7.63;100.00;100074.63;5031893;28;20033;-73
2023/12/31 02:06:23;;;;;;;2.08;1.23;;;;;;;7.70;100.00;100070.47;5040993;28;20025;-73
2023/12/31 02:08:49;;;;;;;9.38;1.20;;;;;;;7.59;100.00;100069.78;5018361;28;20063;-72
2023/12/31 02:11:16;;;;;;;5.13;1.27;;;;;;;7.57;100.00;100053.66;5041397;28;20934;-72
2023/12/31 02:13:43;;;;;;;3.58;1.40;;;;;;;7.54;100.00;100060.91;5035291;28;20128;-73
2023/12/31 02:16:13;;;;;;;4.07;1.35;;;;;;;7.57;100.00;100051.09;5038582;28;20043;-73
2023/12/31 02:18:38;;;;;;;1.83;1.02;;;;;;;7.66;100.00;100046.75;5019866;28;20048;-73
2023/12/31 02:21:05;;;;;;;5.10;1.30;;;;;;;7.66;100.00;100045.94;5035511;28;20036;-72
2023/12/31 02:23:32;;;;;;;3.03;1.73;;;;;;;7.65;99.81;100031.41;5036860;28;20068;-73
2023/12/31 02:26:06;;;;;;;3.85;1.00;;;;;;;7.77;98.85;100037.94;5034228;28;20040;-72
2023/12/31 02:28:31;;;;;;;1.38;1.08;;;;;;;7.70;98.79;100029.19;5047335;28;20037;-72
2023/12/31 02:30:57;;;;;;;1.33;1.08;;;;;;;7.69;98.86;100022.44;5035933;28;20511;-72
2023/12/31 02:33:22;;;;;;;4.85;1.42;;;;;;;7.69;98.40;100022.44;5021424;28;20404;-73
2023/12/31 02:35:48;;;;;;;2.58;1.20;;;;;;;7.69;98.14;100015.47;5039806;28;20507;-73
2023/12/31 02:38:14;;;;;;;4.55;1.15;;;;;;;7.58;98.54;100021.72;5033855;28;20120;-72
2023/12/31 02:40:39;;;;;;;2.65;1.35;;;;;;;7.64;98.25;100022.06;5040048;28;20067;-72
2023/12/31 02:43:05;;;;;;;4.50;1.40;;;;;;;7.59;98.63;100023.34;5039507;28;20397;-73
2023/12/31 02:45:30;;;;;;;3.88;1.40;;;;;;;7.50;99.13;100018.31;5033765;28;20460;-72
2023/12/31 02:47:55;;;;;;;7.07;1.25;;;;;;;7.48;99.20;100010.72;5041955;28;20031;-73
2023/12/31 02:50:21;;;;;;;5.75;1.30;;;;;;;7.40;99.55;100001.19;5034788;28;20033;-72
2023/12/31 02:52:48;;;;;;;2.95;1.35;;;;;;;7.36;99.98;99999.84;5037869;28;20049;-73
2023/12/31 02:55:14;;;;;;;1.95;1.25;;;;;;;7.36;100.00;99983.56;5036371;28;20053;-73
2023/12/31 02:57:39;;;;;;;5.32;1.30;;;;;;;7.28;100.00;99996.44;5035932;28;20036;-72
2023/12/31 03:00:05;;;;;;;4.47;1.27;;;;;;;7.27;100.00;99976.75;5036033;28;20033;-73
2023/12/31 03:02:31;;;;;;;3.30;1.02;;;;;;;7.28;100.00;99971.47;5034314;28;20056;-72
2023/12/31 03:04:56;;;;;;;3.55;1.38;;;;;;;7.27;100.00;99958.72;5037235;28;20033;-72
2023/12/31 03:07:22;;;;;;;3.85;1.30;;;;;;;7.19;100.00;99955.13;5035367;28;20044;-72
2023/12/31 03:09:47;;;;;;;2.58;1.25;;;;;;;7.17;100.00;99949.31;5038233;28;20087;-72
2023/12/31 03:12:13;;;;;;;2.85;1.35;;;;;;;7.16;100.00;99950.31;5034887;28;20032;-72
2023/12/31 03:14:38;;;;;;;3.30;1.30;;;;;;;7.23;100.00;99935.00;5030092;28;20034;-72
2023/12/31 03:17:04;;;;;;;2.20;1.33;;;;;;;7.24;100.00;99931.47;5031803;28;20041;-72
2023/12/31 03:19:35;;;;;;;4.38;1.77;;;;;;;7.23;100.00;99932.44;5020780;28;20041;-72
2023/12/31 03:22:01;;;;;;;4.80;1.45;;;;;;;7.25;100.00;99924.53;5037080;28;20495;-72
2023/12/31 03:24:27;;;;;;;3.42;1.50;;;;;;;7.21;100.00;99913.72;5034496;28;21855;-72
2023/12/31 03:26:53;;;;;;;4.60;1.70;;;;;;;7.27;100.00;99910.53;5023779;28;20016;-73
2023/12/31 03:29:19;;;;;;;6.00;1.83;;;;;;;7.25;100.00;99912.44;5033425;28;20025;-72
2023/12/31 03:31:45;;;;;;;2.92;1.70;;;;;;;7.21;100.00;99904.25;5040579;28;20076;-72
2023/12/31 03:34:10;;;;;;;5.28;1.88;;;;;;;7.28;100.00;99901.03;5032818;28;20068;-72
2023/12/31 03:36:35;;;;;;;3.70;1.60;;;;;;;7.24;100.00;99892.78;5026790;28;20051;-73
2023/12/31 03:39:01;;;;;;;3.58;1.73;;;;;;;7.28;100.00;99883.78;5034369;28;20091;-72
2023/12/31 03:41:27;;;;;;;3.25;1.98;;;;;;;7.27;100.00;99876.19;5053523;28;20112;-73
2023/12/31 03:43:52;;;;;;;6.65;1.80;;;;;;;7.26;100.00;99874.59;5040934;28;20492;-72
2023/12/31 03:46:18;;;;;;;4.10;1.88;;;;;;;7.31;100.00;99867.19;5022626;28;20036;-73
2023/12/31 03:48:43;;;;;;;5.70;2.10;;;;;;;7.28;100.00;99863.16;5025737;28;20033;-73
2023/12/31 03:51:09;;;;;;;4.07;2.08;;;;;;;7.32;100.00;99859.28;5037859;28;20045;-73
2023/12/31 03:53:35;;;;;;;3.88;2.03;;;;;;;7.23;100.00;99855.06;5041626;28;20044;-72
2023/12/31 03:56:00;;;;;;;8.48;2.58;;;;;;;7.38;100.00;99842.38;5034639;28;20041;-72
2023/12/31 03:58:26;;;;;;;6.78;3.17;;;;;;;7.37;100.00;99835.63;5038805;28;20043;-72
2023/12/31 04:00:51;;;;;;;4.22;2.42;;;;;;;7.35;100.00;99829.81;5043578;28;20037;-72
2023/12/31 04:03:17;;;;;;;6.80;2.60;;;;;;;7.36;100.00;99821.91;5038840;28;20218;-73
2023/12/31 04:05:42;;;;;;;4.47;2.63;;;;;;;7.26;100.00;99816.09;5038886;28;20037;-72
2023/12/31 04:08:08;;;;;;;6.18;3.13;;;;;;;7.29;100.00;99813.19;5033551;28;20024;-72
2023/12/31 04:10:34;;;;;;;6.72;3.00;;;;;;;7.29;100.00;99814.94;5040985;28;20500;-72
2023/12/31 04:12:59;;;;;;;6.43;3.35;;;;;;;7.30;100.00;99804.47;5034999;28;20049;-72
2023/12/31 04:15:25;;;;;;;7.03;3.40;;;;;;;7.30;100.00;99799.31;5044976;28;20029;-72
2023/12/31 04:17:52;;;;;;;5.20;3.33;;;;;;;7.40;100.00;99794.84;5040373;28;20041;-72
2023/12/31 04:20:17;;;;;;;5.90;3.03;;;;;;;7.37;100.00;99789.19;5037524;28;20129;-73
2023/12/31 04:22:42;;;;;;;7.55;3.42;;;;;;;7.28;100.00;99795.31;5034817;28;20041;-73
2023/12/31 04:25:08;;;;;;;5.32;3.25;;;;;;;7.38;100.00;99777.91;5039386;28;20029;-72
2023/12/31 04:27:38;;;;;;;5.60;3.42;;;;;;;7.36;100.00;99779.81;5021305;28;20045;-72
2023/12/31 04:30:04;;;;;;;4.72;2.90;;;;;;;7.33;100.00;99777.59;5039673;28;20067;-73
2023/12/31 04:32:30;;;;;;;6.95;2.95;;;;;;;7.41;100.00;99767.28;5039290;28;20102;-73
2023/12/31 04:34:55;;;;;;;4.38;2.80;;;;;;;7.45;100.00;99760.81;5040649;28;20442;-73
2023/12/31 04:37:21;;;;;;;5.57;3.15;;;;;;;7.45;100.00;99757.44;5036106;28;20040;-72
2023/12/31 04:39:46;;;;;;;6.18;3.38;;;;;;;7.40;100.00;99745.00;5035993;28;20064;-72
2023/12/31 04:42:12;;;;;;;8.70;3.25;;;;;;;7.35;100.00;99747.28;5033979;28;20572;-73
2023/12/31 04:44:37;;;;;;;5.78;3.60;;;;;;;7.40;100.00;99729.53;5040492;28;20041;-72
2023/12/31 04:47:03;;;;;;;5.68;2.97;;;;;;;7.46;100.00;99736.66;5036639;28;20691;-72
2023/12/31 04:49:28;;;;;;;5.53;3.45;;;;;;;7.42;100.00;99722.44;5041144;28;20252;-72
2023/12/31 04:51:54;;;;;;;4.97;3.33;;;;;;;7.38;100.00;99731.47;5044318;28;20033;-72
2023/12/31 04:54:20;;;;;;;6.88;3.15;;;;;;;7.36;100.00;99718.72;5037397;28;20045;-73
2023/12/31 04:56:45;;;;;;;5.72;3.50;;;;;;;7.34;100.00;99712.13;5028541;28;20041;-72
2023/12/31 04:59:10;;;;;;;4.32;2.85;;;;;;;7.36;100.00;99705.84;5024314;28;20041;-72
2023/12/31 05:01:36;;;;;;;5.00;2.65;;;;;;;7.46;100.00;99703.13;5039481;28;20057;-73
2023/12/31 05:04:01;;;;;;;5.22;3.15;;;;;;;7.36;100.00;99699.88;5041967;28;20103;-72
2023/12/31 05:06:27;;;;;;;5.97;2.80;;;;;;;7.36;100.00;99689.56;5046389;28;20503;-72
2023/12/31 05:08:52;;;;;;;10.15;3.00;;;;;;;7.43;100.00;99692.31;5042183;28;20057;-73
2023/12/31 05:11:18;;;;;;;10.30;2.95;;;;;;;7.41;100.00;99685.53;5039051;28;20025;-73
2023/12/31 05:13:44;;;;;;;5.38;2.78;;;;;;;7.45;100.00;99683.44;5044989;28;20033;-73
2023/12/31 05:16:14;;;;;;;4.93;3.10;;;;;;;7.47;100.00;99672.97;5039487;28;20041;-72
2023/12/31 05:18:41;;;;;;;8.40;2.78;;;;;;;7.45;100.00;99675.69;5043122;28;20072;-72
2023/12/31 05:21:06;;;;;;;7.68;3.05;;;;;;;7.47;100.00;99666.00;5040481;28;20087;-73
2023/12/31 05:23:32;;;;;;;3.53;2.40;;;;;;;7.53;100.00;99670.50;5040436;28;20029;-72
2023/12/31 05:25:57;;;;;;;5.70;2.88;;;;;;;7.55;100.00;99665.19;5039556;28;20499;-72
2023/12/31 05:28:23;;;;;;;5.13;2.30;;;;;;;7.54;100.00;99650.72;5043212;28;20044;-72
2023/12/31 05:30:48;;;;;;;4.43;2.50;;;;;;;7.55;100.00;99637.66;5037283;28;20113;-73
2023/12/31 05:33:14;;;;;;;4.20;2.55;;;;;;;7.40;100.00;99639.25;5031943;28;20480;-73
2023/12/31 05:35:39;;;;;;;7.68;2.97;;;;;;;7.41;100.00;99646.03;5040497;28;20120;-72
2023/12/31 05:38:05;;;;;;;7.53;2.75;;;;;;;7.52;100.00;99630.22;5027529;28;20064;-73
2023/12/31 05:40:30;;;;;;;7.40;2.90;;;;;;;7.53;100.00;99623.28;5041979;28;20500;-72
2023/12/31 05:42:56;;;;;;;8.82;2.60;;;;;;;7.42;100.00;99624.41;5039494;28;20037;-72
2023/12/31 05:45:21;;;;;;;7.10;2.20;;;;;;;7.44;100.00;99626.84;5035221;28;20079;-72
2023/12/31 05:47:47;;;;;;;5.35;2.38;;;;;;;7.33;100.00;99622.84;5029532;28;20029;-72
2023/12/31 05:50:14;;;;;;;6.82;3.22;;;;;;;7.47;100.00;99617.00;5039266;28;20595;-72
2023/12/31 05:52:39;;;;;;;3.28;2.38;;;;;;;7.48;100.00;99620.38;5041613;28;20076;-72
2023/12/31 05:55:05;;;;;;;6.25;2.55;;;;;;;7.43;100.00;99618.31;5041070;28;20071;-73
2023/12/31 05:57:30;;;;;;;6.32;2.92;;;;;;;7.43;100.00;99618.31;5043401;28;20103;-72
2023/12/31 05:59:56;;;;;;;6.60;2.70;;;;;;;7.45;100.00;99613.00;5040643;28;20057;-73
2023/12/31 06:02:22;;;;;;;4.10;2.55;;;;;;;7.32;100.00;99606.56;5039880;28;20029;-72
2023/12/31 06:04:47;;;;;;;4.45;2.75;;;;;;;7.34;100.00;99603.81;5041130;28;20087;-72
2023/12/31 06:07:13;;;;;;;6.28;2.72;;;;;;;7.44;100.00;99594.13;5041313;28;20028;-72
2023/12/31 06:09:38;;;;;;;4.22;2.78;;;;;;;7.49;100.00;99597.00;5043476;28;20028;-72
2023/12/31 06:12:04;;;;;;;5.90;2.80;;;;;;;7.46;100.00;99592.19;5029490;28;20494;-72
2023/12/31 06:14:29;;;;;;;6.40;2.80;;;;;;;7.43;100.00;99586.56;5036997;28;20128;-72
2023/12/31 06:16:55;;;;;;;6.30;3.05;;;;;;;7.36;100.00;99584.63;5026799;28;20033;-72
2023/12/31 06:19:20;;;;;;;6.82;2.50;;;;;;;7.35;100.00;99583.03;5037379;28;20076;-72
2023/12/31 06:21:46;;;;;;;4.78;2.60;;;;;;;7.40;100.00;99575.59;5042563;28;20056;-73
2023/12/31 06:24:11;;;;;;;5.05;2.47;;;;;;;7.49;100.00;99573.00;5035771;28;20037;-72
2023/12/31 06:26:37;;;;;;;7.47;2.85;;;;;;;7.41;100.00;99573.81;5045156;28;20442;-73
2023/12/31 06:29:03;;;;;;;7.78;2.85;;;;;;;7.41;100.00;99564.31;5040911;28;21957;-72
2023/12/31 06:31:28;;;;;;;10.18;3.78;;;;;;;7.52;100.00;99554.63;5041041;28;20127;-73
2023/12/31 06:33:54;;;;;;;3.88;2.40;;;;;;;7.51;100.00;99555.56;5043721;28;20049;-73
2023/12/31 06:36:19;;;;;;;5.70;2.83;;;;;;;7.52;100.00;99550.25;5040499;28;20916;-73
2023/12/31 06:38:45;;;;;;;6.72;2.88;;;;;;;7.53;100.00;99554.44;5031018;28;20040;-72
2023/12/31 06:41:10;;;;;;;7.03;3.00;;;;;;;7.49;100.00;99562.69;5026299;28;20025;-73
2023/12/31 06:43:36;;;;;;;4.88;2.67;;;;;;;7.62;100.00;99554.41;5040057;28;20412;-72
2023/12/31 06:46:02;;;;;;;5.10;3.03;;;;;;;7.60;100.00;99568.28;5042925;28;20032;-72
2023/12/31 06:48:28;;;;;;;7.22;3.22;;;;;;;7.57;100.00;99575.53;5032998;28;20056;-72
2023/12/31 06:50:53;;;;;;;4.90;2.67;;;;;;;7.59;100.00;99564.09;5028702;28;20056;-73
2023/12/31 06:53:19;;;;;;;6.00;2.55;;;;;;;7.66;100.00;99556.50;5037314;28;20088;-73
2023/12/31 06:55:45;;;;;;;6.03;3.38;;;;;;;7.69;100.00;99543.25;5045565;28;20067;-73
2023/12/31 06:58:10;;;;;;;6.18;3.05;;;;;;;7.72;100.00;99539.53;5041643;28;20499;-73
2023/12/31 07:00:36;;;;;;;7.45;3.17;;;;;;;7.67;100.00;99544.41;5037664;28;20025;-72
2023/12/31 07:03:01;;;;;;;6.35;3.22;;;;;;;7.56;100.00;99541.22;5038032;28;20029;-73
2023/12/31 07:05:27;;;;;;;8.38;3.40;;;;;;;7.62;100.00;99544.09;5043249;28;20029;-72
2023/12/31 07:07:52;;;;;;;10.90;3.13;;;;;;;7.62;100.00;99544.09;5039844;28;20056;-73
2023/12/31 07:10:18;;;;;;;6.57;3.05;;;;;;;7.73;100.00;99539.38;5037384;28;20061;-72
2023/12/31 07:12:44;;;;;;;10.52;3.42;;;;;;;7.76;100.00;99535.63;5039304;28;20094;-72
2023/12/31 07:15:10;;;;;;;5.03;2.83;;;;;;;7.64;100.00;99529.25;5037280;28;20053;-73
2023/12/31 07:17:35;;;;;;;6.10;2.88;;;;;;;7.69;100.00;99527.78;5035960;28;20068;-73
2023/12/31 07:20:05;;;;;;;7.38;3.20;;;;;;;7.62;100.00;99526.84;5037402;28;20029;-72
2023/12/31 07:22:31;;;;;;;5.15;3.13;;;;;;;7.68;100.00;99535.69;5036419;28;20045;-72
2023/12/31 07:25:00;;;;;;;4.80;2.75;;;;;;;7.67;100.00;99516.03;5025941;28;20518;-73
2023/12/31 07:27:26;;;;;;;4.68;2.72;;;;;;;7.67;100.00;99514.25;5036264;28;20033;-72
2023/12/31 07:29:51;;;;;;;6.75;2.83;;;;;;;7.58;100.00;99510.88;5043803;28;20072;-72
2023/12/31 07:32:17;;;;;;;6.53;3.10;;;;;;;7.45;100.00;99500.31;5034630;28;20033;-73
2023/12/31 07:34:43;;;;;;;7.10;3.30;;;;;;;7.55;100.00;99493.19;5039605;28;20128;-72
2023/12/31 07:37:08;;;;;;;4.93;2.97;;;;;;;7.52;100.00;99490.94;5042466;28;20086;-72
2023/12/31 07:39:34;;;;;;;4.63;3.10;;;;;;;7.54;100.00;99480.44;5035602;28;20038;-72
2023/12/31 07:41:59;;;;;;;7.25;3.58;;;;;;;7.54;100.00;99481.25;5042079;28;20322;-72
2023/12/31 07:44:25;;;;;;;5.78;3.35;;;;;;;7.51;100.00;99486.72;5039234;28;20033;-72
2023/12/31 07:46:50;;;;;;;6.80;3.25;;;;;;;7.48;100.00;99494.00;5038105;28;20070;-73
2023/12/31 07:49:15;;;;;;;7.70;2.85;;;;;;;7.52;100.00;99501.25;5033474;28;20037;-72
2023/12/31 07:51:41;;;;;;;5.68;2.95;;;;;;;7.48;100.00;99496.56;5042259;28;20147;-72
2023/12/31 07:54:06;;;;;;;8.15;2.92;;;;;;;7.41;100.00;99493.88;5037871;28;20045;-73
2023/12/31 07:56:32;;;;;;;5.75;3.33;;;;;;;7.39;100.00;99501.78;5038439;28;20093;-73
2023/12/31 07:58:57;;;;;;;5.55;3.08;;;;;;;7.48;100.00;99486.25;5041991;28;20036;-72
2023/12/31 08:01:23;;;;;;;6.82;3.20;;;;;;;7.53;100.00;99487.38;5036378;28;20033;-72
2023/12/31 08:03:49;;;;;;;7.18;3.00;;;;;;;7.60;100.00;99480.56;5036154;28;20500;-73
2023/12/31 08:06:14;;;;;;;7.55;2.65;;;;;;;7.66;100.00;99475.72;5037832;28;20033;-73
2023/12/31 08:08:40;;;;;;;6.38;3.10;;;;;;;7.63;100.00;99476.03;5040501;28;20123;-73
2023/12/31 08:11:05;;;;;;;6.45;2.85;;;;;;;7.70;100.00;99469.22;5040508;28;20041;-73
2023/12/31 08:13:31;;;;;;;8.90;2.97;;;;;;;7.68;100.00;99468.59;5043540;28;20049;-72
2023/12/31 08:15:56;;;;;;;6.60;2.90;;;;;;;7.76;100.00;99477.13;5036591;28;20029;-73
2023/12/31 08:18:22;;;;;;;6.60;2.75;;;;;;;7.78;100.00;99474.38;5033584;28;20045;-73
2023/12/31 08:20:48;;;;;;;5.38;2.88;;;;;;;7.74;100.00;99463.56;5041432;28;20029;-73
2023/12/31 08:23:13;;;;;;;5.75;2.78;;;;;;;7.78;100.00;99464.84;5037973;28;20507;-73
2023/12/31 08:25:39;;;;;;;3.90;2.75;;;;;;;7.87;100.00;99450.09;5035178;28;20041;-73
2023/12/31 08:28:04;;;;;;;4.78;2.78;;;;;;;8.01;100.00;99458.09;5027684;28;20028;-73
2023/12/31 08:30:30;;;;;;;3.33;2.45;;;;;;;8.14;100.00;99442.84;5038422;28;20033;-73
2023/12/31 08:32:55;;;;;;;5.47;2.90;;;;;;;8.27;100.00;99439.66;5042311;28;20047;-73
2023/12/31 08:35:25;;;;;;;3.50;2.10;;;;;;;8.31;99.15;99464.97;5039994;28;20061;-73
2023/12/31 08:37:52;;;;;;;5.38;2.92;;;;;;;8.33;98.52;99447.50;5034167;28;20033;-72
2023/12/31 08:40:19;;;;;;;5.97;2.92;;;;;;;8.39;98.45;99449.41;5046296;28;20033;-72
2023/12/31 08:42:45;;;;;;;5.93;3.00;;;;;;;8.45;97.91;99441.97;5042424;28;20100;-72
2023/12/31 08:45:11;;;;;;;14.55;5.70;;;;;;;8.47;97.37;99445.97;5021958;28;20572;-72
2023/12/31 08:47:38;;;;;;;8.65;4.22;;;;;;;8.58;96.51;99445.53;5050598;28;20041;-72
2023/12/31 08:50:08;;;;;;;8.73;4.05;;;;;;;8.61;96.28;99449.56;5042648;28;20044;-73
2023/12/31 08:52:40;;;;;;;5.82;2.55;;;;;;;8.59;96.45;99446.38;5041923;28;20573;-73
2023/12/31 08:55:07;;;;;;;4.45;2.70;;;;;;;8.72;95.46;99456.91;5037835;28;20052;-73
2023/12/31 08:57:32;;;;;;;7.15;2.30;;;;;;;8.76;95.85;99447.81;5036617;28;20098;-73
2023/12/31 08:59:58;;;;;;;4.63;2.75;;;;;;;8.86;94.22;99436.41;5038889;28;20108;-73
2023/12/31 09:02:23;;;;;;;5.93;2.80;;;;;;;8.83;94.26;99427.22;5044845;28;20025;-74
2023/12/31 09:04:48;;;;;;;4.60;2.33;;;;;;;8.93;93.72;99424.38;5043195;28;20034;-73
2023/12/31 09:07:14;;;;;;;6.65;2.50;;;;;;;8.89;93.52;99430.88;5027698;28;20041;-73
2023/12/31 09:09:40;;;;;;;6.15;2.60;;;;;;;8.95;93.44;99423.22;5037172;28;20061;-73
2023/12/31 09:12:05;;;;;;;4.75;3.00;;;;;;;8.98;93.10;99413.50;5046337;28;20032;-72
2023/12/31 09:14:31;;;;;;;4.18;2.03;;;;;;;8.98;92.76;99416.88;5039236;28;20064;-73
2023/12/31 09:16:57;;;;;;;4.15;2.22;;;;;;;8.96;92.95;99414.47;5043177;28;20033;-73
2023/12/31 09:19:22;;;;;;;6.32;2.83;;;;;;;8.94;93.14;99418.22;5030707;28;20091;-72
2023/12/31 09:21:48;;;;;;;4.85;1.95;;;;;;;9.01;92.68;99400.22;5028171;28;20041;-72
2023/12/31 09:24:13;;;;;;;4.68;2.42;;;;;;;9.08;92.28;99412.25;5040792;28;20037;-72
2023/12/31 09:26:38;;;;;;;4.28;2.53;;;;;;;9.10;92.17;99419.81;5037662;28;20040;-72
2023/12/31 09:29:04;;;;;;;3.97;2.38;;;;;;;9.14;91.70;99415.91;5040860;28;20037;-74
2023/12/31 09:31:29;;;;;;;4.47;2.50;;;;;;;9.10;91.86;99420.63;5046121;28;20049;-72
2023/12/31 09:33:55;;;;;;;4.30;2.45;;;;;;;9.13;92.29;99424.63;5030294;28;20045;-72
2023/12/31 09:36:20;;;;;;;5.43;2.65;;;;;;;9.08;94.66;99442.44;5046054;28;20047;-73
2023/12/31 09:38:46;;;;;;;4.32;2.47;;;;;;;9.03;96.53;99440.41;5024887;28;20056;-72
2023/12/31 09:41:23;;;;;;;5.47;2.50;;;;;;;8.99;99.06;99441.75;5036757;28;20040;-73
2023/12/31 09:43:56;;;;;;;4.15;2.42;;;;;;;8.91;100.00;99453.00;5039829;28;20558;-73
2023/12/31 09:46:22;;;;;;;3.60;2.33;;;;;;;8.82;100.00;99461.00;5038596;28;20021;-73
2023/12/31 09:48:50;;;;;;;3.63;2.35;;;;;;;8.71;100.00;99463.03;5039868;28;20740;-72
2023/12/31 09:51:17;;;;;;;4.68;2.50;;;;;;;8.63;100.00;99457.94;5040576;28;20087;-72
2023/12/31 09:53:47;;;;;;;5.43;3.20;;;;;;;8.64;100.00;99454.38;5022704;28;20113;-73
2023/12/31 09:56:13;;;;;;;6.22;3.30;;;;;;;8.57;100.00;99451.72;5042311;28;20037;-73
2023/12/31 09:58:39;;;;;;;7.82;2.88;;;;;;;8.77;100.00;99451.19;5043311;28;20044;-72
2023/12/31 10:01:05;;;;;;;9.32;5.60;;;;;;;8.86;100.00;99446.75;5029365;28;20128;-72
2023/12/31 10:03:30;;;;;;;5.43;2.63;;;;;;;8.93;99.69;99445.84;5038714;28;20056;-72
2023/12/31 10:05:57;;;;;;;2.97;1.98;;;;;;;9.00;98.05;99458.84;5032442;28;20090;-73
2023/12/31 10:08:23;;;;;;;2.35;1.35;;;;;;;9.04;93.54;99447.22;5041945;28;20064;-73
2023/12/31 10:10:53;;;;;;;1.73;1.20;;;;;;;9.00;92.87;99466.63;5042677;28;20040;-73
2023/12/31 10:13:18;;;;;;;2.05;1.20;;;;;;;9.12;91.25;99462.63;5042367;28;20120;-72
2023/12/31 10:15:45;;;;;;;2.72;1.60;;;;;;;9.23;90.44;99461.38;5043555;28;20047;-73
2023/12/31 10:18:11;;;;;;;7.10;0.88;;;;;;;9.28;89.04;99451.28;5035278;28;20048;-73
2023/12/31 10:20:37;;;;;;;1.08;0.80;;;;;;;9.32;87.73;99468.06;5036386;28;20020;-72
2023/12/31 10:23:03;;;;;;;5.15;1.67;;;;;;;9.26;88.08;99471.34;5024387;28;20040;-73
2023/12/31 10:25:29;;;;;;;1.33;0.73;;;;;;;9.30;87.64;99467.41;5035821;28;20035;-73
2023/12/31 10:27:55;;;;;;;3.15;1.02;;;;;;;9.25;88.89;99466.34;5036608;28;20033;-74
2023/12/31 10:30:21;;;;;;;1.98;0.70;;;;;;;9.19;89.60;99465.28;5041713;28;20033;-73
2023/12/31 10:32:48;;;;;;;4.07;2.50;;;;;;;9.18;89.29;99479.22;5040625;28;20033;-73
2023/12/31 10:35:19;;;;;;;1.70;0.98;;;;;;;9.04;88.92;99467.91;5027757;28;20582;-73
2023/12/31 10:37:44;;;;;;;3.25;1.00;;;;;;;9.18;89.42;99473.25;5038845;28;20386;-74
2023/12/31 10:40:20;;;;;;;2.60;1.00;;;;;;;9.14;90.42;99473.59;5043795;28;20039;-73
2023/12/31 10:42:52;;;;;;;3.45;1.60;;;;;;;9.00;92.02;99489.09;5026352;28;20155;-73
2023/12/31 10:45:20;;;;;;;4.07;1.03;;;;;;;9.06;89.19;99468.50;5037791;28;20539;-73
2023/12/31 10:47:50;;;;;;;4.53;1.13;;;;;;;9.00;89.36;99471.78;5036992;28;21357;-73
2023/12/31 10:50:20;;;;;;;4.97;0.60;;;;;;;9.06;88.75;99449.59;5036879;28;20033;-73
2023/12/31 10:52:53;;;;;;;2.40;0.60;;;;;;;9.09;88.53;99457.78;5039317;28;20538;-72
2023/12/31 10:55:19;;;;;;;1.85;1.23;;;;;;;9.03;89.42;99455.13;5043141;28;20056;-73
2023/12/31 10:57:46;;;;;;;6.10;1.60;;;;;;;9.02;90.22;99456.09;5042085;28;20060;-73
2023/12/31 11:00:28;;;;;;;2.15;0.88;;;;;;;8.94;90.36;99457.78;5039553;28;20055;-73
2023/12/31 11:02:59;;;;;;;2.35;0.68;;;;;;;8.93;92.93;99456.19;5058729;28;20052;-73
2023/12/31 11:05:26;;;;;;;2.20;0.50;;;;;;;8.68;96.37;99453.06;5065844;28;20093;-74
2023/12/31 11:07:53;;;;;;;6.75;0.70;;;;;;;8.61;97.89;99475.41;5040930;28;20038;-73
2023/12/31 11:10:20;;;;;;;1.88;0.50;;;;;;;8.64;97.20;99471.66;5075015;28;20070;-73
2023/12/31 11:12:48;;;;;;;6.07;1.77;;;;;;;8.63;98.21;99452.00;5081605;28;20016;-73
2023/12/31 11:15:17;;;;;;;0.98;0.50;;;;;;;8.62;96.63;99452.94;5059147;28;20089;-73
2023/12/31 11:18:02;;;;;;;1.55;0.57;;;;;;;8.51;98.71;99459.34;5070193;28;20085;-73
2023/12/31 11:20:50;;;;;;;2.42;0.52;;;;;;;8.54;98.67;99456.41;5051017;28;20037;-73
2023/12/31 11:23:40;;;;;;;2.25;0.93;;;;;;;8.61;96.00;99457.31;5083768;28;20813;-73
2023/12/31 11:26:06;;;;;;;2.50;0.55;;;;;;;8.58;95.34;99458.47;5064147;28;20032;-73
2023/12/31 11:28:33;;;;;;;1.02;0.40;;;;;;;8.66;93.97;99454.19;5066862;28;20040;-74